Terminal Aerodrome Forecast
Issued by NWS Paducah, KY

Home | Current Version | Previous Version | Text Only | Print | Product List | Glossary On
Versions: 1 2 3 4 5 6 7 8 9 10 11 12 13 14
665
FTUS43 KPAH 240409 AAA
TAFPAH
TAF AMD
KPAH 240409Z 2404/2424 00000KT 5SM BR SKC
     FM240900 00000KT 2SM BR BCFG SCT002
     FM241330 VRB03KT P6SM SKC
     FM241700 14004KT P6SM SCT050=

USA.gov is the U.S. government's official web portal to all federal, state and local government web resources and services.